Terminal Aerodrome Forecast
Issued by NWS

Home | Current Version | Previous Version | Graphics & Text | Print | Product List | Glossary On
Versions: 1 2 3 4 5 6 7 8 9 10 11 12 13 14
615
FTUS42 KMHX 181744
TAFISO
TAF
KISO 181744Z 1818/1918 35006KT P6SM SCT022 SCT029 BKN040
     FM181900 01012G22KT P6SM BKN060
     FM190800 33008KT P6SM OVC008
     FM191400 34007KT P6SM BKN015
      AMD LTD TO CLD VIS AND WIND=

USA.gov is the U.S. government's official web portal to all federal, state and local government web resources and services.